Time;durP1;ratioP1;P1;durP2;ratioP2;P2;SDS_P1;SDS_P2;PMS_P1;PMS_P2;Temp;Humidity;BMP_temperature;BMP_pressure;BME280_temperature;BME280_humidity;BME280_pressure;Samples;Min_cycle;Max_cycle;Signal;HPM_P1;HPM_P2
2023/05/12 00:02:17;;;;;;;24.10;11.93;;;11.00;99.90;;;;;;5075707;28;20040;-59
2023/05/12 00:04:42;;;;;;;21.90;11.90;;;11.30;99.90;;;;;;5062343;28;20475;-59
2023/05/12 00:07:08;;;;;;;22.83;11.07;;;11.60;99.90;;;;;;5079594;28;20040;-60
2023/05/12 00:09:35;;;;;;;24.58;11.60;;;11.40;99.90;;;;;;5081045;28;20036;-59
2023/05/12 00:12:01;;;;;;;21.90;11.50;;;11.50;99.90;;;;;;5080582;28;20404;-59
2023/05/12 00:14:26;;;;;;;21.50;12.10;;;11.50;99.90;;;;;;5079924;28;20037;-59
2023/05/12 00:16:52;;;;;;;23.10;12.63;;;11.20;99.90;;;;;;5080840;28;20540;-59
2023/05/12 00:19:19;;;;;;;22.23;12.82;;;11.50;99.90;;;;;;5078946;28;20052;-59
2023/05/12 00:21:45;;;;;;;22.25;12.52;;;11.20;99.90;;;;;;5081289;28;20059;-59
2023/05/12 00:24:11;;;;;;;28.80;14.02;;;11.10;99.90;;;;;;5078971;28;20041;-58
2023/05/12 00:26:36;;;;;;;27.08;14.20;;;11.40;99.90;;;;;;5080918;28;20095;-58
2023/05/12 00:29:02;;;;;;;25.65;14.38;;;10.80;99.90;;;;;;5079752;28;20032;-58
2023/05/12 00:31:31;;;;;;;26.88;14.65;;;11.20;99.90;;;;;;5079702;28;20044;-59
2023/05/12 00:33:56;;;;;;;28.45;14.18;;;11.50;99.90;;;;;;5080657;28;20447;-58
2023/05/12 00:36:22;;;;;;;31.45;14.68;;;11.30;99.90;;;;;;5078935;28;20071;-59
2023/05/12 00:38:48;;;;;;;26.58;12.95;;;10.90;99.90;;;;;;5080876;28;20063;-59
2023/05/12 00:41:14;;;;;;;29.88;13.95;;;11.30;99.90;;;;;;5078732;28;20491;-58
2023/05/12 00:43:39;;;;;;;24.63;12.82;;;11.20;99.90;;;;;;5080407;28;20141;-58
2023/05/12 00:46:05;;;;;;;24.98;13.45;;;11.50;99.90;;;;;;5079606;28;20140;-57
2023/05/12 00:48:35;;;;;;;29.77;14.02;;;11.50;99.90;;;;;;5079376;28;20053;-59
2023/05/12 00:51:03;;;;;;;29.58;14.57;;;11.20;99.90;;;;;;5080292;28;20586;-58
2023/05/12 00:53:29;;;;;;;31.10;15.32;;;11.00;99.90;;;;;;5078228;28;20041;-59
2023/05/12 00:55:56;;;;;;;31.70;16.45;;;11.30;99.90;;;;;;5080711;28;20044;-59
2023/05/12 00:58:23;;;;;;;35.08;17.75;;;11.30;99.90;;;;;;5078773;28;20169;-58
2023/05/12 01:00:49;;;;;;;34.50;18.13;;;10.90;99.90;;;;;;5080084;28;20059;-58
2023/05/12 01:03:15;;;;;;;35.05;17.45;;;11.20;99.90;;;;;;5079215;28;20048;-58
2023/05/12 01:06:13;;;;;;;38.00;17.83;;;10.90;99.90;;;;;;5079081;28;20100;-59
2023/05/12 01:08:41;;;;;;;34.15;17.20;;;11.40;99.90;;;;;;5080276;28;20055;-58
2023/05/12 01:11:06;;;;;;;39.60;18.48;;;11.00;99.90;;;;;;5078415;28;20047;-59
2023/05/12 01:13:32;;;;;;;38.47;18.40;;;11.70;99.90;;;;;;5080090;28;20060;-58
2023/05/12 01:16:01;;;;;;;37.67;18.55;;;11.10;99.90;;;;;;5078607;28;20091;-58
2023/05/12 01:18:27;;;;;;;33.95;16.08;;;11.00;99.90;;;;;;5078441;28;20048;-59
2023/05/12 01:20:55;;;;;;;36.97;18.02;;;11.20;99.90;;;;;;5079519;28;20055;-58
2023/05/12 01:23:26;;;;;;;34.97;16.70;;;11.10;99.90;;;;;;5078045;28;20059;-58
2023/05/12 01:25:54;;;;;;;34.17;18.02;;;11.20;99.90;;;;;;5080083;28;20095;-58
2023/05/12 01:28:20;;;;;;;34.63;16.67;;;11.60;99.90;;;;;;5077892;28;20051;-58
2023/05/12 01:30:47;;;;;;;31.33;16.77;;;11.70;99.90;;;;;;5079743;28;20036;-58
2023/05/12 01:33:13;;;;;;;36.47;16.85;;;11.20;99.90;;;;;;5078589;28;20032;-59
2023/05/12 01:35:38;;;;;;;34.72;16.45;;;11.20;99.90;;;;;;5078570;28;20067;-59
2023/05/12 01:38:04;;;;;;;32.22;16.17;;;11.40;99.90;;;;;;5079529;28;20070;-58
2023/05/12 01:40:30;;;;;;;33.40;17.63;;;11.20;99.90;;;;;;5042941;28;20044;-58
2023/05/12 01:42:55;;;;;;;29.38;15.93;;;11.80;99.90;;;;;;5079504;28;20054;-59
2023/05/12 01:45:21;;;;;;;30.92;17.25;;;11.70;99.90;;;;;;5077362;28;20044;-58
2023/05/12 01:47:47;;;;;;;34.45;17.17;;;11.80;99.90;;;;;;5061545;28;20048;-59
2023/05/12 01:50:12;;;;;;;34.10;17.52;;;11.50;99.90;;;;;;5078057;28;20484;-59
2023/05/12 01:52:38;;;;;;;30.30;16.95;;;11.60;99.90;;;;;;5078635;28;20048;-58
2023/05/12 01:55:04;;;;;;;34.55;17.55;;;11.60;99.90;;;;;;5079066;28;20048;-58
2023/05/12 01:57:30;;;;;;;37.30;17.15;;;11.60;99.90;;;;;;5077462;28;20037;-58
2023/05/12 01:59:56;;;;;;;39.58;18.42;;;11.30;99.90;;;;;;5078938;28;20087;-59
2023/05/12 02:02:21;;;;;;;32.53;18.67;;;11.70;99.90;;;;;;5076932;28;20033;-59
2023/05/12 02:04:47;;;;;;;32.22;17.67;;;11.70;99.90;;;;;;5079378;28;20036;-58
2023/05/12 02:07:14;;;;;;;34.47;17.55;;;11.20;99.90;;;;;;5077470;28;20044;-59
2023/05/12 02:09:40;;;;;;;35.08;18.70;;;11.20;99.90;;;;;;5078580;28;20037;-58
2023/05/12 02:12:06;;;;;;;42.08;19.92;;;11.90;99.90;;;;;;5078383;28;20726;-58
2023/05/12 02:14:32;;;;;;;40.47;18.63;;;11.20;99.90;;;;;;5059119;28;20052;-58
2023/05/12 02:16:58;;;;;;;39.92;20.58;;;11.80;99.90;;;;;;5078912;28;20071;-58
2023/05/12 02:19:24;;;;;;;41.25;19.67;;;11.30;99.90;;;;;;5076647;28;20048;-58
2023/05/12 02:21:50;;;;;;;35.60;19.90;;;11.50;99.90;;;;;;5079162;28;20056;-59
2023/05/12 02:24:16;;;;;;;37.50;20.00;;;11.90;99.90;;;;;;5076905;28;20067;-58
2023/05/12 02:26:41;;;;;;;42.35;21.75;;;11.20;99.90;;;;;;5078033;28;20047;-58
2023/05/12 02:29:07;;;;;;;40.03;20.80;;;11.80;99.90;;;;;;5077883;28;20075;-58
2023/05/12 02:31:33;;;;;;;43.55;21.20;;;11.60;99.90;;;;;;5077200;28;20104;-57
2023/05/12 02:34:00;;;;;;;43.13;20.80;;;11.40;99.90;;;;;;5078463;28;20135;-58
2023/05/12 02:36:25;;;;;;;42.05;22.02;;;11.30;99.90;;;;;;5076717;28;20111;-57
2023/05/12 02:38:51;;;;;;;39.78;21.23;;;11.50;99.90;;;;;;5079105;28;20397;-58
2023/05/12 02:41:17;;;;;;;37.13;19.60;;;11.80;99.90;;;;;;5058711;28;20048;-58
2023/05/12 02:43:42;;;;;;;41.17;20.20;;;12.00;99.90;;;;;;5078348;28;20036;-58
2023/05/12 02:46:08;;;;;;;41.25;19.63;;;11.80;99.90;;;;;;5077714;28;20043;-58
2023/05/12 02:48:34;;;;;;;44.80;21.45;;;11.80;99.90;;;;;;5077366;28;20131;-59
2023/05/12 02:50:59;;;;;;;40.05;19.60;;;11.90;99.90;;;;;;5078317;28;20096;-58
2023/05/12 02:53:26;;;;;;;42.80;19.38;;;11.20;99.90;;;;;;5076538;28;20071;-58
2023/05/12 02:55:52;;;;;;;39.30;19.50;;;11.80;99.90;;;;;;5078747;28;20150;-58
2023/05/12 02:58:18;;;;;;;41.65;19.67;;;11.80;99.90;;;;;;5076381;28;20045;-57
2023/05/12 03:00:43;;;;;;;41.42;19.70;;;11.90;99.90;;;;;;5078125;28;20036;-58
2023/05/12 03:03:09;;;;;;;41.15;19.90;;;11.30;99.90;;;;;;5077286;28;20488;-58
2023/05/12 03:05:35;;;;;;;40.72;20.15;;;11.80;99.90;;;;;;5058969;28;20055;-59
2023/05/12 03:08:01;;;;;;;43.40;19.77;;;11.70;99.90;;;;;;5060095;28;20436;-58
2023/05/12 03:10:26;;;;;;;40.47;18.85;;;11.10;99.90;;;;;;5076464;28;20041;-58
2023/05/12 03:12:52;;;;;;;41.70;19.02;;;11.60;99.90;;;;;;5078350;28;20048;-58
2023/05/12 03:15:18;;;;;;;42.65;19.98;;;11.20;99.90;;;;;;5076362;28;20044;-58
2023/05/12 03:17:43;;;;;;;39.03;19.33;;;11.90;99.90;;;;;;5078264;28;20056;-58
2023/05/12 03:20:09;;;;;;;41.05;19.10;;;11.50;99.90;;;;;;5076719;28;20044;-58
2023/05/12 03:22:35;;;;;;;46.35;20.65;;;11.90;99.90;;;;;;5077394;28;20639;-58
2023/05/12 03:25:02;;;;;;;44.67;19.60;;;11.20;99.90;;;;;;5077606;28;20064;-58
2023/05/12 03:27:29;;;;;;;39.83;19.17;;;11.90;99.90;;;;;;5076315;28;20044;-58
2023/05/12 03:29:55;;;;;;;45.20;20.73;;;11.80;99.90;;;;;;5078014;28;20041;-58
2023/05/12 03:32:21;;;;;;;43.33;19.38;;;11.20;99.90;;;;;;5075914;28;20048;-58
2023/05/12 03:34:46;;;;;;;40.28;18.63;;;11.60;99.90;;;;;;5078179;28;20263;-58
2023/05/12 03:37:12;;;;;;;43.35;19.83;;;11.30;99.90;;;;;;5076435;28;20046;-58
2023/05/12 03:39:38;;;;;;;40.85;18.77;;;11.80;99.90;;;;;;5061741;28;20056;-58
2023/05/12 03:42:04;;;;;;;42.88;19.98;;;11.40;99.90;;;;;;5081195;28;20044;-58
2023/05/12 03:44:29;;;;;;;42.55;19.13;;;11.80;99.90;;;;;;5080074;28;20045;-58
2023/05/12 03:46:55;;;;;;;40.05;18.48;;;11.70;99.90;;;;;;5063735;28;20045;-58
2023/05/12 03:49:21;;;;;;;45.17;19.08;;;11.30;99.90;;;;;;5079860;28;20044;-59
2023/05/12 03:51:46;;;;;;;50.28;18.95;;;11.90;99.90;;;;;;5082008;28;20052;-59
2023/05/12 03:54:12;;;;;;;38.40;19.67;;;11.30;99.90;;;;;;5079872;28;20044;-58
2023/05/12 03:56:38;;;;;;;44.28;20.98;;;11.90;99.90;;;;;;5081177;28;20040;-57
2023/05/12 03:59:03;;;;;;;42.30;20.48;;;11.40;99.90;;;;;;5080582;28;20132;-58
2023/05/12 04:01:29;;;;;;;41.25;22.98;;;11.50;99.90;;;;;;5080187;28;20092;-58
2023/05/12 04:03:55;;;;;;;46.45;21.55;;;12.00;99.90;;;;;;5081099;28;20048;-57
2023/05/12 04:06:20;;;;;;;43.45;20.42;;;12.00;99.90;;;;;;5079269;28;20045;-58
2023/05/12 04:08:46;;;;;;;40.90;19.52;;;11.20;99.90;;;;;;5081688;28;20072;-58
2023/05/12 04:11:12;;;;;;;37.40;20.02;;;11.30;99.90;;;;;;5079308;28;20050;-58
2023/05/12 04:13:38;;;;;;;42.28;20.02;;;11.90;99.90;;;;;;5081218;28;20048;-58
2023/05/12 04:16:04;;;;;;;43.38;20.48;;;11.30;99.90;;;;;;5080257;28;20343;-58
2023/05/12 04:18:30;;;;;;;44.38;21.10;;;11.20;99.90;;;;;;5068182;28;20125;-58
2023/05/12 04:20:56;;;;;;;40.95;20.80;;;11.80;99.90;;;;;;5060854;28;20049;-58
2023/05/12 04:23:22;;;;;;;51.47;21.92;;;11.50;99.90;;;;;;5059183;28;20061;-58
2023/05/12 04:25:47;;;;;;;36.30;17.42;;;11.60;99.90;;;;;;5060927;28;20041;-58
2023/05/12 04:28:13;;;;;;;41.30;19.73;;;12.00;99.90;;;;;;5059112;28;20041;-58
2023/05/12 04:30:40;;;;;;;44.47;19.40;;;11.30;99.90;;;;;;5060951;28;20049;-58
2023/05/12 04:33:07;;;;;;;39.92;18.05;;;12.10;99.90;;;;;;5059870;28;20048;-58
2023/05/12 04:35:33;;;;;;;37.65;18.15;;;11.80;99.90;;;;;;5041924;28;20401;-58
2023/05/12 04:38:00;;;;;;;34.38;18.77;;;12.00;99.90;;;;;;5060470;28;20065;-58
2023/05/12 04:40:26;;;;;;;38.65;19.27;;;12.10;99.90;;;;;;5058533;28;20040;-58
2023/05/12 04:42:52;;;;;;;36.00;17.30;;;11.70;99.90;;;;;;5060725;28;20096;-58
2023/05/12 04:45:17;;;;;;;39.40;18.10;;;12.00;99.90;;;;;;5040779;28;20075;-58
2023/05/12 04:47:43;;;;;;;40.05;20.13;;;12.20;99.90;;;;;;5060815;28;20056;-58
2023/05/12 04:50:09;;;;;;;39.55;19.60;;;11.50;99.90;;;;;;5040639;28;20048;-58
2023/05/12 04:52:36;;;;;;;37.85;18.00;;;11.90;99.90;;;;;;5059651;28;20045;-59
2023/05/12 04:55:01;;;;;;;35.65;17.17;;;12.00;99.90;;;;;;5059929;28;20191;-58
2023/05/12 04:57:27;;;;;;;38.53;18.77;;;12.30;99.90;;;;;;5040946;28;20120;-58
2023/05/12 04:59:53;;;;;;;38.72;17.45;;;11.80;99.90;;;;;;5060296;28;20091;-58
2023/05/12 05:02:18;;;;;;;32.38;17.88;;;12.30;99.90;;;;;;5058276;28;20037;-58
2023/05/12 05:04:44;;;;;;;35.22;17.30;;;11.70;99.90;;;;;;5060499;28;20045;-58
2023/05/12 05:07:10;;;;;;;35.92;18.90;;;11.70;99.90;;;;;;5058790;28;20079;-58
2023/05/12 05:09:35;;;;;;;33.85;17.88;;;12.20;99.90;;;;;;5059626;28;20053;-59
2023/05/12 05:12:01;;;;;;;35.92;18.13;;;12.50;99.90;;;;;;5059781;28;20240;-58
2023/05/12 05:14:26;;;;;;;39.60;17.80;;;12.50;99.90;;;;;;5058644;28;20059;-58
2023/05/12 05:16:53;;;;;;;34.72;17.20;;;12.10;99.90;;;;;;5060211;28;20051;-58
2023/05/12 05:19:18;;;;;;;37.42;18.80;;;12.60;99.90;;;;;;5094156;28;20078;-58
2023/05/12 05:21:44;;;;;;;42.50;18.77;;;12.50;99.90;;;;;;5100784;28;20044;-59
2023/05/12 05:24:10;;;;;;;44.10;18.13;;;11.90;99.90;;;;;;5098352;28;20044;-58
2023/05/12 05:26:36;;;;;;;36.88;17.20;;;12.50;99.90;;;;;;5099999;28;20081;-58
2023/05/12 05:29:03;;;;;;;35.97;18.27;;;12.70;99.90;;;;;;5099357;28;20103;-58
2023/05/12 05:31:28;;;;;;;37.20;19.23;;;12.00;99.90;;;;;;5098647;28;20062;-58
2023/05/12 05:33:54;;;;;;;39.03;18.98;;;12.80;99.90;;;;;;5099983;28;20119;-59
2023/05/12 05:36:21;;;;;;;34.20;18.20;;;12.20;99.90;;;;;;5098126;28;20250;-58
2023/05/12 05:38:47;;;;;;;39.60;18.00;;;12.70;99.90;;;;;;5100072;28;20381;-58
2023/05/12 05:41:13;;;;;;;37.05;18.17;;;12.20;99.90;;;;;;5098117;28;20071;-58
2023/05/12 05:43:38;;;;;;;35.65;17.98;;;12.80;99.90;;;;;;5099851;28;20669;-58
2023/05/12 05:46:04;;;;;;;33.35;17.02;;;12.30;99.90;;;;;;5098953;28;20194;-58
2023/05/12 05:48:30;;;;;;;34.38;16.73;;;12.20;99.90;;;;;;5098533;28;20036;-58
2023/05/12 05:50:55;;;;;;;34.72;18.17;;;12.90;99.90;;;;;;5099455;28;20051;-58
2023/05/12 05:53:22;;;;;;;32.60;17.70;;;12.70;99.90;;;;;;5097753;28;20044;-58
2023/05/12 05:55:48;;;;;;;41.17;19.30;;;12.30;99.90;;;;;;5099977;28;20047;-59
2023/05/12 05:58:14;;;;;;;32.13;18.80;;;12.10;99.90;;;;;;5097700;28;20064;-58
2023/05/12 06:00:41;;;;;;;35.67;20.00;;;12.90;99.90;;;;;;5099279;28;20661;-58
2023/05/12 06:03:07;;;;;;;38.13;18.55;;;12.50;99.90;;;;;;5097846;28;20100;-59
2023/05/12 06:05:33;;;;;;;41.35;20.00;;;12.40;99.90;;;;;;5098289;28;20036;-59
2023/05/12 06:08:03;;;;;;;38.20;21.98;;;13.00;99.90;;;;;;5099134;28;20058;-59
2023/05/12 06:10:29;;;;;;;39.30;21.58;;;12.20;99.90;;;;;;5097390;28;20400;-58
2023/05/12 06:12:55;;;;;;;35.63;20.08;;;12.70;99.90;;;;;;5099677;28;20047;-59
2023/05/12 06:15:21;;;;;;;36.53;20.35;;;12.40;99.90;;;;;;5097152;28;20051;-58
2023/05/12 06:17:46;;;;;;;43.42;20.75;;;12.40;99.90;;;;;;5080953;28;20048;-58
2023/05/12 06:20:13;;;;;;;41.10;21.17;;;13.10;99.90;;;;;;5097961;28;20105;-59
2023/05/12 06:22:41;;;;;;;40.80;20.35;;;12.30;99.90;;;;;;5079622;28;20113;-59
2023/05/12 06:25:07;;;;;;;38.75;21.60;;;12.80;99.90;;;;;;5098461;28;20079;-58
2023/05/12 06:27:32;;;;;;;39.90;21.42;;;12.50;99.90;;;;;;5078766;28;20075;-58
2023/05/12 06:29:58;;;;;;;36.08;21.15;;;13.10;99.90;;;;;;5098988;28;20043;-58
2023/05/12 06:32:24;;;;;;;36.85;20.42;;;12.60;99.90;;;;;;5096996;28;20040;-58
2023/05/12 06:34:49;;;;;;;39.88;21.60;;;12.60;99.90;;;;;;5099153;28;20044;-58
2023/05/12 06:37:15;;;;;;;38.85;20.75;;;13.10;99.90;;;;;;5097546;28;20040;-58
2023/05/12 06:39:41;;;;;;;39.97;21.23;;;12.60;99.90;;;;;;5097942;28;20054;-58
2023/05/12 06:42:07;;;;;;;38.30;20.80;;;13.30;99.90;;;;;;5098424;28;20075;-58
2023/05/12 06:44:32;;;;;;;39.17;21.73;;;12.80;99.90;;;;;;5096758;28;20122;-58
2023/05/12 06:46:58;;;;;;;44.90;22.48;;;13.80;99.90;;;;;;5098562;28;20496;-59
2023/05/12 06:49:24;;;;;;;41.35;23.83;;;13.70;99.90;;;;;;5096960;28;20765;-58
2023/05/12 06:51:50;;;;;;;43.00;24.35;;;13.90;99.90;;;;;;5098915;28;20109;-58
2023/05/12 06:54:15;;;;;;;46.92;25.13;;;13.10;99.90;;;;;;5097253;28;20044;-58
2023/05/12 06:56:41;;;;;;;42.65;26.60;;;13.30;99.90;;;;;;5098253;28;20083;-58
2023/05/12 06:59:07;;;;;;;43.70;25.80;;;13.30;99.90;;;;;;5079765;28;20040;-58
2023/05/12 07:01:32;;;;;;;43.15;26.25;;;13.90;99.90;;;;;;5096973;28;20074;-58
2023/05/12 07:03:58;;;;;;;41.67;24.88;;;13.30;99.90;;;;;;5098647;28;20052;-58
2023/05/12 07:06:27;;;;;;;41.65;26.15;;;14.30;99.90;;;;;;5096489;28;20043;-58
2023/05/12 07:08:54;;;;;;;44.38;26.45;;;14.00;99.90;;;;;;5098556;28;20042;-58
2023/05/12 07:11:20;;;;;;;48.53;27.45;;;14.20;99.90;;;;;;5096718;28;20083;-58
2023/05/12 07:13:46;;;;;;;42.63;26.27;;;14.20;99.90;;;;;;5100922;28;20044;-58
2023/05/12 07:16:13;;;;;;;44.50;27.13;;;14.50;99.90;;;;;;5084015;28;20058;-58
2023/05/12 07:18:39;;;;;;;45.20;28.10;;;14.60;99.90;;;;;;5100986;28;20044;-59
2023/05/12 07:21:05;;;;;;;49.20;28.48;;;14.50;99.90;;;;;;5102524;28;20048;-58
2023/05/12 07:23:31;;;;;;;44.10;28.20;;;14.60;99.90;;;;;;5100601;28;20059;-58
2023/05/12 07:25:56;;;;;;;45.67;29.70;;;13.90;99.90;;;;;;5102847;28;20182;-58
2023/05/12 07:28:22;;;;;;;42.47;27.50;;;14.70;99.90;;;;;;5100737;28;20131;-59
2023/05/12 07:30:48;;;;;;;46.30;30.17;;;14.70;99.90;;;;;;5102017;28;20060;-58
2023/05/12 07:33:14;;;;;;;48.20;29.98;;;15.00;99.90;;;;;;5101497;28;20047;-58
2023/05/12 07:35:39;;;;;;;51.13;32.13;;;14.40;99.90;;;;;;5100583;28;20036;-59
2023/05/12 07:38:06;;;;;;;47.92;30.77;;;14.30;99.90;;;;;;5102025;28;20491;-58
2023/05/12 07:40:31;;;;;;;50.05;32.00;;;14.30;99.90;;;;;;5100343;28;20044;-58
2023/05/12 07:42:57;;;;;;;50.38;33.40;;;14.50;99.90;;;;;;5102368;28;20072;-58
2023/05/12 07:45:24;;;;;;;53.53;32.40;;;15.30;99.90;;;;;;5100165;28;20452;-58
2023/05/12 07:47:50;;;;;;;49.30;32.17;;;14.90;99.90;;;;;;5102026;28;20047;-58
2023/05/12 07:50:17;;;;;;;46.03;32.92;;;14.60;99.90;;;;;;5101171;28;20032;-58
2023/05/12 07:52:47;;;;;;;46.63;33.83;;;15.20;99.90;;;;;;5100917;28;20051;-58
2023/05/12 07:55:14;;;;;;;49.38;33.63;;;15.60;99.90;;;;;;5101798;28;20047;-58
2023/05/12 07:57:40;;;;;;;49.25;33.60;;;15.30;99.90;;;;;;5099990;28;20035;-58
2023/05/12 08:00:07;;;;;;;49.30;35.13;;;15.10;99.90;;;;;;5083621;28;20050;-58
2023/05/12 08:02:32;;;;;;;50.83;35.63;;;15.90;99.90;;;;;;5081409;28;20044;-58
2023/05/12 08:04:58;;;;;;;46.70;34.13;;;15.30;99.90;;;;;;5101882;28;20044;-59
2023/05/12 08:07:24;;;;;;;45.03;33.30;;;15.70;99.90;;;;;;5100931;28;20077;-58
2023/05/12 08:09:50;;;;;;;48.60;34.90;;;15.90;99.90;;;;;;5100481;28;20074;-58
2023/05/12 08:12:15;;;;;;;47.55;34.08;;;16.10;99.90;;;;;;5101498;28;20048;-58
2023/05/12 08:14:41;;;;;;;46.47;34.67;;;16.00;99.90;;;;;;5099735;28;20040;-58
2023/05/12 08:17:07;;;;;;;46.58;34.60;;;15.50;99.90;;;;;;5101634;28;20040;-58
2023/05/12 08:19:32;;;;;;;47.25;33.85;;;15.90;99.90;;;;;;5099257;28;20243;-58
2023/05/12 08:21:58;;;;;;;46.15;34.50;;;16.10;99.90;;;;;;5101708;28;20111;-58
2023/05/12 08:24:23;;;;;;;45.88;34.55;;;16.20;99.90;;;;;;5099463;28;20036;-58
2023/05/12 08:26:49;;;;;;;46.22;34.03;;;16.30;99.90;;;;;;5100604;28;20036;-58
2023/05/12 08:29:15;;;;;;;46.30;34.88;;;16.30;99.90;;;;;;5100930;28;20246;-59
2023/05/12 08:31:41;;;;;;;46.85;35.08;;;16.40;99.90;;;;;;5099369;28;20048;-58
2023/05/12 08:34:07;;;;;;;49.20;34.13;;;16.50;99.90;;;;;;5101236;28;20044;-58
2023/05/12 08:36:33;;;;;;;47.47;33.53;;;16.10;99.90;;;;;;5099143;28;20393;-58
2023/05/12 08:38:58;;;;;;;47.55;34.65;;;16.40;99.90;;;;;;5101487;28;20058;-58
2023/05/12 08:41:43;;;;;;;45.65;33.50;;;16.50;99.90;;;;;;5099521;28;20093;-57
2023/05/12 08:44:10;;;;;;;46.15;33.17;;;16.50;99.90;;;;;;5099613;28;20123;-58
2023/05/12 08:46:37;;;;;;;43.92;33.33;;;16.50;99.90;;;;;;5100884;28;20048;-58
2023/05/12 08:49:03;;;;;;;47.03;33.03;;;17.00;99.90;;;;;;5099052;28;20051;-58
2023/05/12 08:51:31;;;;;;;42.60;31.35;;;17.10;99.90;;;;;;5101146;28;20032;-58
2023/05/12 08:53:57;;;;;;;42.83;31.75;;;17.00;99.90;;;;;;5099091;28;20091;-58
2023/05/12 08:56:24;;;;;;;40.35;30.80;;;17.30;99.90;;;;;;5100805;28;20048;-59
2023/05/12 08:58:50;;;;;;;39.55;28.95;;;17.40;99.90;;;;;;5099505;28;20058;-58
2023/05/12 09:01:17;;;;;;;36.60;26.80;;;17.20;99.90;;;;;;5099431;28;20127;-58
2023/05/12 09:03:42;;;;;;;35.72;27.30;;;17.20;99.90;;;;;;5100447;28;20051;-58
2023/05/12 09:06:10;;;;;;;34.60;27.33;;;17.30;99.90;;;;;;5098672;28;20040;-59
2023/05/12 09:08:36;;;;;;;32.45;25.55;;;17.30;99.90;;;;;;5082633;28;20040;-58
2023/05/12 09:11:02;;;;;;;33.17;26.02;;;17.70;99.90;;;;;;5080481;28;20085;-58
2023/05/12 09:13:51;;;;;;;31.60;25.40;;;17.80;99.90;;;;;;5100173;28;20036;-59
2023/05/12 09:16:21;;;;;;;32.78;26.50;;;18.00;99.90;;;;;;5100015;28;20044;-58
2023/05/12 09:18:57;;;;;;;26.80;21.98;;;18.00;99.90;;;;;;5098353;28;20055;-58
2023/05/12 09:21:25;;;;;;;27.65;21.33;;;18.00;99.90;;;;;;5100475;28;20063;-59
2023/05/12 09:23:57;;;;;;;30.17;22.50;;;18.10;99.90;;;;;;5098090;28;20044;-57
2023/05/12 09:26:25;;;;;;;27.40;22.50;;;18.30;99.90;;;;;;5100232;28;20450;-58
2023/05/12 09:29:06;;;;;;;27.30;21.45;;;18.30;99.90;;;;;;5099234;28;20063;-58
2023/05/12 09:31:32;;;;;;;23.98;20.33;;;18.50;99.90;;;;;;5098381;28;20048;-58
2023/05/12 09:34:01;;;;;;;29.00;22.15;;;18.40;99.90;;;;;;5100131;28;20044;-58
2023/05/12 09:36:26;;;;;;;28.00;22.40;;;18.50;99.90;;;;;;5096685;28;20518;-58
2023/05/12 09:39:10;;;;;;;29.02;22.05;;;18.60;99.90;;;;;;5100460;28;20055;-58
2023/05/12 09:41:41;;;;;;;27.40;20.92;;;18.70;99.90;;;;;;5099107;28;20103;-59
2023/05/12 09:44:08;;;;;;;27.10;21.77;;;18.80;99.90;;;;;;5098550;28;20044;-58
2023/05/12 09:46:35;;;;;;;26.63;22.15;;;19.00;99.90;;;;;;5099526;28;20044;-58
2023/05/12 09:49:02;;;;;;;24.08;19.70;;;19.00;99.90;;;;;;5079554;28;20044;-58
2023/05/12 09:51:29;;;;;;;23.20;18.83;;;18.90;99.90;;;;;;5082167;28;20609;-59
2023/05/12 09:53:55;;;;;;;25.42;19.88;;;18.90;99.90;;;;;;5097970;28;20048;-58
2023/05/12 09:56:21;;;;;;;23.48;19.15;;;19.00;99.90;;;;;;5099560;28;20046;-59
2023/05/12 09:58:48;;;;;;;26.83;20.20;;;18.90;99.90;;;;;;5063981;28;20052;-56
2023/05/12 10:01:17;;;;;;;25.83;19.83;;;19.10;99.90;;;;;;5098081;28;20040;-56
2023/05/12 10:03:49;;;;;;;20.75;16.92;;;19.10;99.90;;;;;;5099354;28;20044;-59
2023/05/12 10:06:21;;;;;;;17.85;15.07;;;19.10;99.90;;;;;;5097494;28;20099;-58
2023/05/12 10:08:55;;;;;;;16.30;13.73;;;19.30;99.90;;;;;;5099769;28;20054;-56
2023/05/12 10:11:21;;;;;;;15.32;13.52;;;19.30;99.90;;;;;;5097840;28;20066;-58
2023/05/12 10:13:47;;;;;;;15.13;13.25;;;19.40;99.90;;;;;;5098485;28;20055;-58
2023/05/12 10:16:14;;;;;;;17.05;13.25;;;19.50;99.90;;;;;;5098901;28;20101;-58
2023/05/12 10:18:41;;;;;;;15.20;12.35;;;19.60;99.90;;;;;;5097458;28;20044;-58
2023/05/12 10:21:10;;;;;;;17.15;12.23;;;19.60;99.90;;;;;;5099163;28;20135;-58
2023/05/12 10:23:40;;;;;;;13.65;11.40;;;19.70;99.90;;;;;;5097009;28;20050;-58
2023/05/12 10:26:06;;;;;;;13.45;11.27;;;19.80;99.90;;;;;;5099330;28;20040;-58
2023/05/12 10:28:32;;;;;;;15.07;10.95;;;19.80;99.90;;;;;;5097335;28;20053;-58
2023/05/12 10:30:58;;;;;;;12.82;10.13;;;19.80;99.90;;;;;;5098257;28;20048;-59
2023/05/12 10:33:26;;;;;;;14.35;11.10;;;19.80;99.90;;;;;;5098627;28;20035;-58
2023/05/12 10:35:52;;;;;;;15.23;11.70;;;19.60;99.90;;;;;;5097411;28;20036;-58
2023/05/12 10:38:21;;;;;;;17.23;13.48;;;19.80;99.90;;;;;;5098986;28;20047;-59
2023/05/12 10:40:57;;;;;;;17.02;14.55;;;19.90;99.90;;;;;;5096964;28;20050;-58
2023/05/12 10:43:46;;;;;;;17.60;15.00;;;20.00;99.90;;;;;;5080738;28;20067;-58
2023/05/12 10:46:16;;;;;;;18.00;15.30;;;20.20;99.90;;;;;;5098418;28;20052;-58
2023/05/12 10:48:58;;;;;;;21.08;16.50;;;20.20;99.90;;;;;;5096992;28;20589;-59
2023/05/12 10:51:27;;;;;;;20.05;15.88;;;20.30;99.90;;;;;;5099012;28;20048;-58
2023/05/12 10:54:03;;;;;;;18.05;15.32;;;20.30;99.90;;;;;;5096929;28;20131;-58
2023/05/12 10:56:40;;;;;;;20.23;15.88;;;20.30;99.90;;;;;;5098775;28;20044;-58
2023/05/12 10:59:17;;;;;;;18.92;15.88;;;20.40;99.90;;;;;;5098110;28;20032;-59
2023/05/12 11:02:02;;;;;;;23.33;17.17;;;20.30;99.90;;;;;;5096694;28;20055;-58
2023/05/12 11:04:50;;;;;;;20.02;16.70;;;20.30;99.90;;;;;;5099005;28;20099;-58
2023/05/12 11:07:20;;;;;;;18.63;15.80;;;20.40;99.90;;;;;;5097614;28;20059;-58
2023/05/12 11:09:46;;;;;;;17.95;15.63;;;20.40;99.90;;;;;;5097490;28;20055;-58
2023/05/12 11:12:13;;;;;;;20.50;16.15;;;20.50;99.90;;;;;;5098082;28;20098;-58
2023/05/12 11:14:41;;;;;;;20.40;16.48;;;20.40;99.90;;;;;;5096509;28;20032;-58
2023/05/12 11:17:08;;;;;;;18.75;14.90;;;20.60;99.90;;;;;;5098608;28;20491;-58
2023/05/12 11:19:34;;;;;;;16.90;13.20;;;20.50;99.90;;;;;;5096477;28;20091;-58
2023/05/12 11:22:08;;;;;;;20.20;16.00;;;20.60;99.90;;;;;;5098498;28;20086;-59
2023/05/12 11:24:36;;;;;;;15.10;12.68;;;20.60;99.90;;;;;;5097634;28;20095;-59
2023/05/12 11:27:03;;;;;;;16.85;12.05;;;20.70;99.90;;;;;;5097076;28;20036;-59
2023/05/12 11:29:29;;;;;;;18.50;11.30;;;20.80;99.90;;;;;;5098218;28;20080;-58
2023/05/12 11:31:54;;;;;;;13.23;9.75;;;20.90;99.90;;;;;;5096324;28;20450;-58
2023/05/12 11:34:24;;;;;;;16.20;11.20;;;21.00;99.90;;;;;;5098677;28;20219;-59
2023/05/12 11:36:52;;;;;;;15.65;12.90;;;21.10;99.90;;;;;;5096578;28;20040;-59
2023/05/12 11:39:22;;;;;;;15.40;11.82;;;21.10;99.90;;;;;;5097988;28;20044;-59
2023/05/12 11:41:49;;;;;;;13.50;10.93;;;21.20;99.90;;;;;;5097890;28;20055;-59
2023/05/12 11:44:17;;;;;;;15.40;11.32;;;21.20;99.90;;;;;;5078362;28;20048;-56
2023/05/12 11:46:54;;;;;;;14.23;11.50;;;21.30;99.90;;;;;;5098203;28;20063;-58
2023/05/12 11:49:20;;;;;;;13.10;10.60;;;21.30;99.90;;;;;;5096427;28;20092;-58
2023/05/12 11:51:46;;;;;;;14.05;10.98;;;21.30;99.90;;;;;;5080233;28;20063;-58
2023/05/12 11:54:13;;;;;;;14.65;12.07;;;21.50;99.90;;;;;;5096986;28;20041;-59
2023/05/12 11:56:53;;;;;;;16.00;12.93;;;21.60;99.90;;;;;;5097299;28;20055;-57
2023/05/12 11:59:29;;;;;;;16.15;13.52;;;21.70;99.90;;;;;;5097981;28;20044;-58
2023/05/12 12:02:02;;;;;;;13.85;10.57;;;21.50;99.90;;;;;;5081672;28;20040;-58
2023/05/12 12:04:37;;;;;;;11.80;9.27;;;21.40;99.90;;;;;;5101936;28;20056;-58
2023/05/12 12:07:06;;;;;;;12.15;8.63;;;21.50;99.90;;;;;;5100431;28;20055;-57
2023/05/12 12:09:35;;;;;;;11.77;8.57;;;21.40;99.90;;;;;;5100875;28;20096;-58
2023/05/12 12:12:02;;;;;;;12.38;9.40;;;21.30;99.90;;;;;;5101564;28;20067;-58
2023/05/12 12:14:31;;;;;;;11.68;8.50;;;21.30;99.90;;;;;;5099865;28;20527;-59
2023/05/12 12:16:57;;;;;;;10.68;8.35;;;21.60;99.90;;;;;;5101660;28;20048;-58
2023/05/12 12:19:24;;;;;;;13.70;9.30;;;21.90;99.90;;;;;;5099424;28;20060;-58
2023/05/12 12:21:50;;;;;;;11.90;9.32;;;21.90;99.90;;;;;;5101674;28;20071;-59
2023/05/12 12:24:16;;;;;;;12.38;8.85;;;22.00;99.90;;;;;;5100195;28;20047;-58
2023/05/12 12:26:42;;;;;;;10.35;7.70;;;22.00;99.90;;;;;;5082202;28;20105;-59
2023/05/12 12:29:07;;;;;;;11.88;8.73;;;22.00;99.90;;;;;;5082455;28;20525;-60